Terminal Aerodrome Forecast
Issued by NWS

Home | Current Version | Previous Version | Text Only | Print | Product List | Glossary On
Versions: 1 2 3 4 5 6 7 8 9 10 11 12 13 14 15 16
420
FTUS46 KLOX 301734
TAFPMD
TAF
KPMD 301734Z 3018/3118 28025G35KT P6SM SCT250
     FM302100 27030G40KT P6SM SCT250
     FM302300 27040G50KT 1SM BLDU SCT002
     FM310300 29028G38KT P6SM SKC
     FM310700 30015G25KT P6SM SKC
     FM311200 27012KT P6SM SKC=

USA.gov is the U.S. government's official web portal to all federal, state and local government web resources and services.